Time;durP1;ratioP1;P1;durP2;ratioP2;P2;SDS_P1;SDS_P2;PMS_P1;PMS_P2;Temp;Humidity;BMP_temperature;BMP_pressure;BME280_temperature;BME280_humidity;BME280_pressure;Samples;Min_cycle;Max_cycle;Signal;HPM_P1;HPM_P2
2023/05/26 00:00:03;;;;;;;24.38;4.03;;;9.40;99.90;;;;;;4993331;28;20035;-68
2023/05/26 00:02:39;;;;;;;20.10;3.47;;;9.30;99.90;;;;;;5003551;28;20591;-68
2023/05/26 00:05:07;;;;;;;22.23;3.65;;;9.30;99.90;;;;;;5011298;28;20048;-68
2023/05/26 00:07:36;;;;;;;16.75;3.20;;;9.30;99.90;;;;;;5025977;28;20052;-68
2023/05/26 00:10:03;;;;;;;27.38;4.45;;;9.20;99.90;;;;;;5018720;28;20033;-68
2023/05/26 00:12:29;;;;;;;17.85;2.80;;;9.20;99.90;;;;;;5002660;28;20044;-67
2023/05/26 00:14:56;;;;;;;16.95;2.75;;;9.10;99.90;;;;;;5001794;28;20037;-68
2023/05/26 00:17:22;;;;;;;14.07;2.72;;;9.10;99.90;;;;;;5002772;28;20037;-67
2023/05/26 00:19:49;;;;;;;21.38;3.50;;;9.10;99.90;;;;;;4993999;28;20045;-68
2023/05/26 00:22:15;;;;;;;19.88;4.18;;;9.10;99.90;;;;;;5001993;28;20033;-69
2023/05/26 00:24:42;;;;;;;27.30;4.30;;;9.00;99.90;;;;;;5000932;28;20048;-68
2023/05/26 00:27:08;;;;;;;22.38;4.38;;;9.00;99.90;;;;;;5008286;28;20033;-68
2023/05/26 00:29:37;;;;;;;17.48;3.45;;;9.00;99.90;;;;;;5006661;28;20048;-69
2023/05/26 00:32:04;;;;;;;26.25;4.50;;;8.90;99.90;;;;;;4991176;28;20033;-68
2023/05/26 00:34:30;;;;;;;23.23;4.63;;;8.90;99.90;;;;;;5003536;28;21878;-69
2023/05/26 00:36:56;;;;;;;25.05;3.20;;;8.90;99.90;;;;;;4986058;28;20432;-68
2023/05/26 00:39:23;;;;;;;28.50;4.53;;;8.90;99.90;;;;;;4998598;28;20045;-69
2023/05/26 00:41:49;;;;;;;17.05;2.58;;;8.80;99.90;;;;;;4997316;28;20044;-68
2023/05/26 00:44:15;;;;;;;18.75;4.07;;;8.80;99.90;;;;;;5001940;28;20037;-68
2023/05/26 00:46:42;;;;;;;14.75;2.70;;;8.80;99.90;;;;;;4979660;28;20029;-68
2023/05/26 00:49:09;;;;;;;23.02;3.72;;;8.80;99.90;;;;;;5009421;28;20040;-68
2023/05/26 00:51:35;;;;;;;27.30;3.88;;;8.70;99.90;;;;;;4990066;28;21109;-67
2023/05/26 00:54:02;;;;;;;17.65;2.97;;;8.70;99.90;;;;;;5012146;28;20036;-68
2023/05/26 00:56:29;;;;;;;29.70;3.90;;;8.70;99.90;;;;;;5005259;28;20692;-68
2023/05/26 00:58:56;;;;;;;21.55;3.22;;;8.70;99.90;;;;;;4984937;28;20047;-67
2023/05/26 01:01:23;;;;;;;23.23;3.92;;;8.60;99.90;;;;;;4979915;28;20052;-69
2023/05/26 01:03:49;;;;;;;17.05;2.63;;;8.60;99.90;;;;;;5019802;28;20047;-67
2023/05/26 01:06:17;;;;;;;26.95;4.55;;;8.60;99.90;;;;;;5005099;28;21601;-68
2023/05/26 01:08:43;;;;;;;22.20;2.88;;;8.50;99.90;;;;;;4987290;28;20049;-68
2023/05/26 01:11:29;;;;;;;25.15;4.90;;;8.50;99.90;;;;;;4985036;28;20045;-67
2023/05/26 01:14:01;;;;;;;27.50;4.60;;;8.40;99.90;;;;;;5009967;28;20515;-68
2023/05/26 01:16:31;;;;;;;20.75;3.28;;;8.40;99.90;;;;;;5013474;28;20496;-67
2023/05/26 01:19:13;;;;;;;27.17;4.03;;;8.40;99.90;;;;;;5006534;28;20037;-68
2023/05/26 01:21:42;;;;;;;16.65;3.60;;;8.40;99.90;;;;;;4998117;28;20737;-68
2023/05/26 01:24:33;;;;;;;14.23;2.85;;;8.30;99.90;;;;;;4998309;28;20044;-68
2023/05/26 01:27:14;;;;;;;18.77;3.38;;;8.30;99.90;;;;;;5020357;28;20037;-67
2023/05/26 01:29:41;;;;;;;20.23;3.42;;;8.30;99.90;;;;;;4992594;28;20037;-67
2023/05/26 01:32:14;;;;;;;24.55;3.60;;;8.20;99.90;;;;;;5001295;28;20033;-68
2023/05/26 01:34:40;;;;;;;22.33;2.90;;;8.20;99.90;;;;;;5012489;28;20041;-68
2023/05/26 01:37:07;;;;;;;16.30;2.88;;;8.20;99.90;;;;;;5013424;28;20021;-67
2023/05/26 01:39:34;;;;;;;25.48;4.00;;;8.20;99.90;;;;;;4984225;28;20117;-68
2023/05/26 01:42:22;;;;;;;26.35;4.30;;;8.20;99.90;;;;;;4996739;28;20044;-68
2023/05/26 01:45:07;;;;;;;19.48;4.07;;;8.20;99.90;;;;;;5003277;28;20484;-69
2023/05/26 01:47:35;;;;;;;20.35;3.65;;;8.10;99.90;;;;;;5017352;28;20036;-68
2023/05/26 01:50:05;;;;;;;13.98;2.53;;;8.10;99.90;;;;;;4995123;28;20032;-68
2023/05/26 01:52:34;;;;;;;30.52;5.20;;;8.10;99.90;;;;;;5017663;28;20331;-68
2023/05/26 01:55:07;;;;;;;21.98;3.83;;;8.10;99.90;;;;;;4988482;28;20044;-67
2023/05/26 01:57:35;;;;;;;19.95;3.17;;;8.10;99.90;;;;;;5011931;28;20495;-68
2023/05/26 02:00:03;;;;;;;21.73;3.58;;;8.10;99.90;;;;;;4984927;28;20037;-68
2023/05/26 02:02:41;;;;;;;17.42;2.80;;;8.00;99.90;;;;;;5007210;28;20045;-68
2023/05/26 02:05:07;;;;;;;17.83;3.15;;;8.00;99.90;;;;;;5002963;28;20037;-68
2023/05/26 02:07:35;;;;;;;17.92;3.60;;;8.00;99.90;;;;;;5004529;28;20413;-68
2023/05/26 02:10:03;;;;;;;30.90;4.85;;;8.00;99.90;;;;;;4993869;28;20051;-68
2023/05/26 02:12:29;;;;;;;23.65;4.50;;;8.00;99.90;;;;;;5003543;28;21200;-68
2023/05/26 02:14:55;;;;;;;30.08;4.20;;;7.90;99.90;;;;;;5003836;28;20033;-68
2023/05/26 02:17:23;;;;;;;22.13;3.90;;;7.90;99.90;;;;;;5007098;28;20128;-68
2023/05/26 02:19:50;;;;;;;24.27;3.92;;;7.90;99.90;;;;;;5003870;28;20036;-68
2023/05/26 02:22:18;;;;;;;26.17;4.20;;;7.90;99.90;;;;;;4993795;28;20041;-68
2023/05/26 02:24:47;;;;;;;26.98;3.97;;;7.90;99.90;;;;;;5000615;28;20040;-68
2023/05/26 02:27:13;;;;;;;26.38;3.95;;;7.80;99.90;;;;;;5001388;28;20250;-68
2023/05/26 02:29:40;;;;;;;17.75;3.20;;;7.80;99.90;;;;;;4996239;28;20060;-68
2023/05/26 02:32:06;;;;;;;14.85;2.42;;;7.80;99.90;;;;;;5000474;28;20044;-68
2023/05/26 02:34:32;;;;;;;23.95;3.67;;;7.80;99.90;;;;;;5016565;28;20032;-68
2023/05/26 02:36:59;;;;;;;25.98;3.22;;;7.80;99.90;;;;;;4984181;28;20041;-68
2023/05/26 02:39:25;;;;;;;26.20;4.30;;;7.80;99.90;;;;;;5005348;28;21335;-69
2023/05/26 02:41:53;;;;;;;19.75;3.42;;;7.80;99.90;;;;;;5005563;28;20036;-68
2023/05/26 02:44:20;;;;;;;22.88;4.05;;;7.80;99.90;;;;;;5024124;28;20040;-69
2023/05/26 02:46:47;;;;;;;20.05;3.33;;;7.70;99.90;;;;;;5001918;28;20037;-68
2023/05/26 02:49:14;;;;;;;21.98;4.00;;;7.70;99.90;;;;;;4983176;28;20107;-68
2023/05/26 02:51:40;;;;;;;20.85;3.30;;;7.70;99.90;;;;;;4997026;28;20053;-69
2023/05/26 02:54:06;;;;;;;19.40;2.80;;;7.60;99.90;;;;;;4999111;28;22139;-68
2023/05/26 02:56:32;;;;;;;16.13;2.85;;;7.70;99.90;;;;;;5002300;28;20032;-68
2023/05/26 02:58:59;;;;;;;25.17;3.97;;;7.70;99.90;;;;;;4988656;28;20033;-69
2023/05/26 03:01:25;;;;;;;17.17;3.25;;;7.60;99.90;;;;;;5001973;28;20036;-68
2023/05/26 03:03:51;;;;;;;14.50;2.22;;;7.60;99.90;;;;;;5010537;28;20425;-69
2023/05/26 03:06:18;;;;;;;23.27;3.53;;;7.60;99.90;;;;;;5006620;28;20041;-69
2023/05/26 03:08:44;;;;;;;21.55;4.00;;;7.60;99.90;;;;;;5000550;28;20024;-69
2023/05/26 03:11:11;;;;;;;26.20;3.35;;;7.50;99.90;;;;;;4993930;28;20040;-68
2023/05/26 03:13:41;;;;;;;19.42;3.53;;;7.60;99.90;;;;;;5001778;28;20064;-68
2023/05/26 03:16:07;;;;;;;32.95;7.43;;;7.50;99.90;;;;;;4999091;28;20492;-68
2023/05/26 03:18:34;;;;;;;26.60;4.95;;;7.60;99.90;;;;;;5015949;28;20020;-68
2023/05/26 03:21:02;;;;;;;19.20;2.97;;;7.50;99.90;;;;;;4979564;28;20681;-69
2023/05/26 03:23:29;;;;;;;19.63;2.80;;;7.50;99.90;;;;;;5010339;28;21094;-68
2023/05/26 03:25:56;;;;;;;16.65;3.00;;;7.50;99.90;;;;;;4994066;28;20749;-68
2023/05/26 03:28:25;;;;;;;18.95;4.57;;;7.50;99.90;;;;;;5009243;28;20041;-68
2023/05/26 03:30:52;;;;;;;16.60;2.90;;;7.50;99.90;;;;;;4991490;28;20041;-69
2023/05/26 03:33:19;;;;;;;24.88;3.90;;;7.50;99.90;;;;;;4994746;28;20404;-68
2023/05/26 03:35:46;;;;;;;25.25;3.63;;;7.50;99.90;;;;;;4989728;28;20756;-69
2023/05/26 03:38:13;;;;;;;23.73;3.53;;;7.50;99.90;;;;;;4961381;28;20036;-69
2023/05/26 03:40:41;;;;;;;26.70;5.22;;;7.40;99.90;;;;;;4969419;28;20044;-68
2023/05/26 03:43:08;;;;;;;21.50;3.50;;;7.40;99.90;;;;;;4995002;28;20511;-68
2023/05/26 03:45:43;;;;;;;17.23;2.78;;;7.40;99.90;;;;;;5005987;28;20064;-69
2023/05/26 03:48:12;;;;;;;15.85;3.00;;;7.40;99.90;;;;;;5019366;28;20037;-68
2023/05/26 03:50:40;;;;;;;14.10;2.45;;;7.40;99.90;;;;;;4990468;28;20033;-68
2023/05/26 03:53:06;;;;;;;22.80;3.70;;;7.40;99.90;;;;;;4995614;28;21078;-68
2023/05/26 03:55:36;;;;;;;16.67;3.03;;;7.40;99.90;;;;;;4995615;28;20048;-68
2023/05/26 03:58:04;;;;;;;28.05;5.05;;;7.40;99.90;;;;;;4993653;28;20491;-68
2023/05/26 04:00:32;;;;;;;26.67;4.25;;;7.40;99.90;;;;;;4986039;28;20033;-69
2023/05/26 04:02:59;;;;;;;16.85;3.40;;;7.40;99.90;;;;;;5007398;28;20038;-68
2023/05/26 04:05:26;;;;;;;17.40;3.00;;;7.40;99.90;;;;;;4993922;28;20487;-69
2023/05/26 04:07:54;;;;;;;22.20;3.58;;;7.50;99.90;;;;;;5003078;28;20128;-68
2023/05/26 04:10:20;;;;;;;25.17;4.47;;;7.50;99.90;;;;;;5010561;28;21921;-69
2023/05/26 04:12:47;;;;;;;27.13;4.82;;;7.50;99.90;;;;;;4997263;28;21699;-69
2023/05/26 04:15:13;;;;;;;23.27;4.28;;;7.60;99.90;;;;;;4993494;28;20043;-69
2023/05/26 04:17:41;;;;;;;23.10;4.05;;;7.60;99.90;;;;;;4976409;28;20036;-68
2023/05/26 04:20:11;;;;;;;20.33;3.63;;;7.60;99.90;;;;;;4969488;28;20037;-68
2023/05/26 04:22:38;;;;;;;18.08;3.00;;;7.60;99.90;;;;;;4961935;28;20041;-68
2023/05/26 04:25:04;;;;;;;23.17;4.57;;;7.70;99.90;;;;;;4980929;28;20037;-68
2023/05/26 04:27:46;;;;;;;19.98;4.40;;;7.70;99.90;;;;;;5005587;28;20036;-67
2023/05/26 04:30:27;;;;;;;23.35;3.65;;;7.70;99.90;;;;;;5001053;28;20040;-69
2023/05/26 04:33:13;;;;;;;20.73;4.07;;;7.80;99.90;;;;;;5005357;28;20419;-68
2023/05/26 04:36:08;;;;;;;25.10;4.28;;;7.90;99.90;;;;;;4997294;28;20033;-68
2023/05/26 04:38:41;;;;;;;21.52;4.25;;;8.00;99.90;;;;;;4996312;28;20048;-68
2023/05/26 04:41:08;;;;;;;17.80;3.15;;;8.00;99.90;;;;;;4970718;28;20075;-68
2023/05/26 04:43:35;;;;;;;24.65;3.35;;;8.10;99.90;;;;;;4995682;28;20044;-68
2023/05/26 04:46:02;;;;;;;20.55;4.10;;;8.20;99.90;;;;;;4979836;28;20070;-68
2023/05/26 04:48:29;;;;;;;17.67;2.58;;;8.30;99.90;;;;;;5016325;28;20781;-68
2023/05/26 04:50:56;;;;;;;21.70;4.22;;;8.40;99.90;;;;;;5013619;28;21148;-67
2023/05/26 04:53:22;;;;;;;21.42;3.50;;;8.50;99.90;;;;;;5008384;28;20040;-68
2023/05/26 04:55:48;;;;;;;19.90;3.78;;;8.60;99.90;;;;;;4999980;28;20036;-68
2023/05/26 04:58:16;;;;;;;30.70;6.30;;;8.70;99.90;;;;;;5013638;28;20036;-68
2023/05/26 05:00:42;;;;;;;25.30;3.97;;;8.80;99.90;;;;;;4987293;28;20550;-68
2023/05/26 05:03:36;;;;;;;30.17;4.28;;;8.90;99.90;;;;;;5000048;28;20040;-68
2023/05/26 05:06:12;;;;;;;19.27;3.17;;;9.00;99.90;;;;;;5003414;28;20032;-68
2023/05/26 05:08:38;;;;;;;24.65;4.47;;;9.10;99.90;;;;;;5005110;28;20049;-68
2023/05/26 05:11:05;;;;;;;21.58;3.85;;;9.20;99.90;;;;;;5005425;28;20038;-68
2023/05/26 05:13:32;;;;;;;21.48;3.35;;;9.30;99.90;;;;;;5008404;28;20041;-68
2023/05/26 05:16:00;;;;;;;20.65;3.60;;;9.40;99.90;;;;;;5012012;28;20043;-70
2023/05/26 05:18:26;;;;;;;23.80;3.65;;;9.50;99.90;;;;;;5004089;28;20408;-69
2023/05/26 05:20:53;;;;;;;22.85;3.75;;;9.50;99.90;;;;;;4997393;28;22338;-71
2023/05/26 05:23:19;;;;;;;28.67;10.15;;;9.70;99.90;;;;;;5002949;28;20367;-73
2023/05/26 05:25:45;;;;;;;25.52;5.65;;;9.80;99.90;;;;;;4981709;28;20060;-70
2023/05/26 05:28:12;;;;;;;30.70;6.60;;;9.90;99.90;;;;;;5002470;28;20041;-70
2023/05/26 05:30:47;;;;;;;27.17;5.18;;;10.10;99.90;;;;;;4993616;28;20147;-68
2023/05/26 05:33:14;;;;;;;32.42;5.57;;;10.10;99.90;;;;;;5010341;28;20067;-67
2023/05/26 05:35:40;;;;;;;28.00;4.97;;;10.10;99.90;;;;;;5011608;28;20040;-67
2023/05/26 05:38:07;;;;;;;26.08;3.65;;;10.00;99.90;;;;;;5023184;28;20041;-70
2023/05/26 05:40:33;;;;;;;29.52;6.13;;;10.10;99.90;;;;;;4994438;28;20381;-70
2023/05/26 05:43:00;;;;;;;25.25;5.53;;;10.20;99.90;;;;;;5014675;28;20044;-70
2023/05/26 05:45:28;;;;;;;28.60;5.80;;;10.30;99.90;;;;;;4983425;28;20487;-70
2023/05/26 05:48:14;;;;;;;21.63;4.35;;;10.50;99.90;;;;;;4999178;28;20048;-70
2023/05/26 05:51:00;;;;;;;31.30;5.68;;;10.60;99.90;;;;;;4958945;28;20048;-69
2023/05/26 05:53:27;;;;;;;29.27;6.68;;;10.60;99.90;;;;;;5019473;28;20032;-68
2023/05/26 05:55:53;;;;;;;24.65;4.78;;;10.70;99.90;;;;;;4989664;28;20033;-68
2023/05/26 05:58:19;;;;;;;25.35;4.88;;;10.80;99.90;;;;;;5005600;28;21722;-68
2023/05/26 06:00:46;;;;;;;15.13;3.20;;;10.80;99.90;;;;;;4970844;28;20048;-67
2023/05/26 06:03:12;;;;;;;27.60;5.18;;;10.90;99.90;;;;;;5012076;28;20044;-67
2023/05/26 06:05:40;;;;;;;26.38;4.28;;;11.10;99.90;;;;;;4999531;28;20040;-68
2023/05/26 06:08:07;;;;;;;25.98;5.45;;;11.10;99.90;;;;;;5016662;28;20325;-67
2023/05/26 06:10:34;;;;;;;27.45;4.93;;;11.40;99.90;;;;;;4990264;28;20037;-67
2023/05/26 06:13:01;;;;;;;26.17;4.97;;;11.50;99.90;;;;;;4985396;28;20388;-68
2023/05/26 06:15:27;;;;;;;23.73;5.47;;;11.60;99.90;;;;;;5007890;28;20503;-67
2023/05/26 06:17:53;;;;;;;21.63;4.65;;;11.60;99.90;;;;;;4993893;28;20037;-68
2023/05/26 06:20:20;;;;;;;29.67;5.32;;;11.70;99.90;;;;;;5002924;28;20112;-69
2023/05/26 06:22:46;;;;;;;29.35;5.53;;;11.90;99.90;;;;;;4998509;28;20040;-67
2023/05/26 06:25:12;;;;;;;22.02;4.55;;;12.00;99.90;;;;;;5000117;28;20033;-68
2023/05/26 06:27:39;;;;;;;24.63;5.65;;;12.10;99.90;;;;;;4981339;28;20041;-68
2023/05/26 06:30:06;;;;;;;31.50;5.65;;;12.20;99.90;;;;;;4975777;28;20044;-67
2023/05/26 06:32:34;;;;;;;21.48;4.15;;;12.30;99.90;;;;;;5001119;28;20037;-69
2023/05/26 06:35:01;;;;;;;21.58;4.50;;;12.40;99.90;;;;;;5014059;28;20037;-68
2023/05/26 06:37:28;;;;;;;26.75;4.50;;;12.70;99.90;;;;;;4989555;28;20033;-67
2023/05/26 06:39:54;;;;;;;20.20;4.00;;;13.00;99.90;;;;;;4998246;28;20029;-67
2023/05/26 06:42:26;;;;;;;16.67;3.75;;;13.30;99.90;;;;;;4985829;28;20048;-67
2023/05/26 06:44:52;;;;;;;18.13;4.07;;;13.60;99.90;;;;;;5010103;28;20036;-69
2023/05/26 06:47:23;;;;;;;22.27;4.22;;;13.70;99.90;;;;;;4976371;28;20404;-69
2023/05/26 06:49:50;;;;;;;23.83;5.32;;;13.70;99.90;;;;;;4969807;28;20045;-67
2023/05/26 06:52:18;;;;;;;26.02;5.13;;;13.60;99.90;;;;;;4996087;28;20056;-67
2023/05/26 06:54:44;;;;;;;28.27;4.93;;;13.60;99.90;;;;;;4981034;28;20605;-68
2023/05/26 06:57:10;;;;;;;24.48;4.25;;;13.50;99.90;;;;;;4999710;28;20044;-68
2023/05/26 06:59:37;;;;;;;22.05;4.45;;;13.50;99.90;;;;;;4987280;28;20037;-67
2023/05/26 07:02:04;;;;;;;19.30;3.65;;;13.50;99.90;;;;;;4989398;28;20484;-67
2023/05/26 07:04:31;;;;;;;20.90;4.53;;;13.60;99.90;;;;;;4988863;28;20037;-67
2023/05/26 07:06:58;;;;;;;20.75;4.13;;;13.80;99.90;;;;;;4993242;28;20516;-67
2023/05/26 07:09:24;;;;;;;16.60;3.55;;;13.90;99.90;;;;;;4992533;28;20048;-73
2023/05/26 07:11:59;;;;;;;24.85;4.75;;;14.00;99.90;;;;;;4979651;28;20388;-67
2023/05/26 07:14:40;;;;;;;22.65;4.65;;;14.20;99.90;;;;;;4994355;28;20040;-68
2023/05/26 07:17:09;;;;;;;21.02;3.55;;;14.30;99.90;;;;;;4976878;28;21311;-68
2023/05/26 07:19:38;;;;;;;24.38;5.10;;;14.20;99.90;;;;;;4978517;28;20049;-67
2023/05/26 07:22:04;;;;;;;19.90;4.15;;;14.10;99.90;;;;;;5003955;28;20041;-68
2023/05/26 07:24:35;;;;;;;15.45;3.90;;;14.00;99.90;;;;;;4994987;28;20049;-67
2023/05/26 07:27:06;;;;;;;15.13;3.00;;;14.10;99.90;;;;;;4989622;28;20044;-67
2023/05/26 07:29:33;;;;;;;22.17;3.92;;;14.40;99.90;;;;;;4968774;28;21156;-67
2023/05/26 07:32:00;;;;;;;27.23;5.22;;;14.70;99.90;;;;;;5000485;28;20044;-68
2023/05/26 07:34:27;;;;;;;17.73;3.97;;;14.90;99.90;;;;;;5002359;28;20044;-69
2023/05/26 07:36:53;;;;;;;12.90;3.13;;;14.80;99.90;;;;;;4998494;28;20052;-68
2023/05/26 07:39:19;;;;;;;15.75;3.55;;;14.80;99.90;;;;;;4958518;28;20040;-68
2023/05/26 07:41:46;;;;;;;13.05;2.85;;;14.60;99.90;;;;;;4994153;28;20507;-67
2023/05/26 07:44:12;;;;;;;26.92;5.63;;;14.50;99.90;;;;;;5005580;28;20029;-69
2023/05/26 07:46:38;;;;;;;23.98;4.45;;;14.60;99.90;;;;;;5004165;28;20068;-67
2023/05/26 07:49:05;;;;;;;21.83;5.15;;;14.60;99.90;;;;;;4980670;28;20049;-68
2023/05/26 07:51:32;;;;;;;16.02;3.92;;;14.60;99.90;;;;;;4989326;28;20052;-67
2023/05/26 07:53:58;;;;;;;17.80;4.40;;;14.70;99.90;;;;;;4977401;28;20447;-68
2023/05/26 07:56:25;;;;;;;22.00;3.88;;;14.80;99.90;;;;;;4994928;28;20041;-69
2023/05/26 07:58:51;;;;;;;16.75;3.28;;;14.80;99.90;;;;;;4992560;28;20510;-67
2023/05/26 08:01:18;;;;;;;17.10;3.60;;;14.90;99.90;;;;;;4992255;28;20601;-67
2023/05/26 08:03:44;;;;;;;18.60;3.58;;;15.00;99.90;;;;;;5005128;28;20021;-68
2023/05/26 08:06:14;;;;;;;16.20;4.05;;;15.20;99.90;;;;;;5008689;28;20570;-69
2023/05/26 08:08:40;;;;;;;19.90;3.83;;;15.20;99.90;;;;;;5012151;28;20466;-68
2023/05/26 08:11:06;;;;;;;18.83;4.07;;;15.30;99.90;;;;;;4995041;28;20037;-68
2023/05/26 08:13:33;;;;;;;24.35;4.72;;;15.30;99.90;;;;;;4996641;28;20377;-68
2023/05/26 08:15:59;;;;;;;15.77;3.53;;;15.40;99.90;;;;;;5000748;28;20095;-69
2023/05/26 08:18:25;;;;;;;22.58;4.38;;;15.40;99.90;;;;;;5001365;28;20036;-69
2023/05/26 08:20:52;;;;;;;19.25;3.85;;;15.60;99.90;;;;;;4989447;28;20045;-68
2023/05/26 08:23:19;;;;;;;15.48;4.05;;;15.80;99.90;;;;;;4997636;28;20055;-72
2023/05/26 08:25:45;;;;;;;15.75;2.90;;;15.90;99.90;;;;;;5007161;28;20025;-71
2023/05/26 08:28:12;;;;;;;16.60;3.70;;;16.10;99.90;;;;;;5009878;28;20044;-68
2023/05/26 08:30:38;;;;;;;14.32;3.25;;;16.20;99.90;;;;;;5001579;28;20033;-70
2023/05/26 08:33:04;;;;;;;19.23;4.25;;;16.40;99.90;;;;;;4980550;28;20048;-69
2023/05/26 08:35:30;;;;;;;16.10;4.45;;;16.50;99.50;;;;;;4999247;28;20408;-69
2023/05/26 08:37:57;;;;;;;17.42;3.33;;;16.50;99.50;;;;;;5002015;28;20032;-69
2023/05/26 08:40:23;;;;;;;13.52;3.40;;;16.60;99.50;;;;;;4990337;28;20052;-68
2023/05/26 08:42:53;;;;;;;19.50;3.72;;;16.70;98.90;;;;;;4999050;28;20045;-68
2023/05/26 08:45:19;;;;;;;18.20;3.22;;;16.70;98.50;;;;;;5004502;28;20025;-69
2023/05/26 08:47:47;;;;;;;18.88;4.65;;;16.70;98.40;;;;;;5016232;28;20453;-69
2023/05/26 08:50:16;;;;;;;17.58;4.40;;;16.80;98.10;;;;;;5013891;28;20041;-68
2023/05/26 08:52:43;;;;;;;16.38;3.25;;;16.90;97.30;;;;;;5016574;28;20057;-68
2023/05/26 08:55:11;;;;;;;17.95;3.92;;;16.90;97.40;;;;;;5009825;28;23394;-69
2023/05/26 08:57:41;;;;;;;10.70;2.50;;;17.00;97.50;;;;;;5007267;28;20032;-69
2023/05/26 09:00:08;;;;;;;12.10;2.95;;;17.10;97.20;;;;;;5002490;28;20056;-69
2023/05/26 09:02:34;;;;;;;13.50;2.90;;;17.30;96.90;;;;;;5009708;28;20918;-68
2023/05/26 09:05:01;;;;;;;13.07;3.05;;;17.40;96.20;;;;;;4993451;28;20041;-68
2023/05/26 09:07:27;;;;;;;16.08;3.50;;;17.40;95.70;;;;;;5024267;28;20041;-69
2023/05/26 09:09:53;;;;;;;17.83;3.97;;;17.50;96.00;;;;;;5010354;28;20044;-68
2023/05/26 09:12:19;;;;;;;17.10;3.53;;;17.70;94.80;;;;;;5020443;28;20024;-70
2023/05/26 09:14:46;;;;;;;14.10;2.78;;;17.70;94.70;;;;;;5012649;28;20047;-69
2023/05/26 09:17:13;;;;;;;13.50;2.47;;;17.80;94.90;;;;;;5009685;28;20483;-69
2023/05/26 09:19:40;;;;;;;14.27;3.25;;;18.00;95.00;;;;;;5004658;28;20037;-68
2023/05/26 09:22:08;;;;;;;19.33;4.80;;;18.10;94.20;;;;;;4976265;28;20362;-68
2023/05/26 09:24:48;;;;;;;16.27;3.78;;;18.10;93.00;;;;;;5012644;28;20044;-69
2023/05/26 09:27:24;;;;;;;11.90;2.47;;;18.10;93.30;;;;;;5024802;28;20044;-69
2023/05/26 09:29:52;;;;;;;10.75;2.70;;;18.20;93.10;;;;;;5013581;28;20047;-69
2023/05/26 09:32:18;;;;;;;13.98;3.15;;;18.40;92.70;;;;;;5019446;28;20043;-69
2023/05/26 09:34:45;;;;;;;12.60;2.88;;;18.40;92.30;;;;;;5018420;28;20032;-68
2023/05/26 09:37:11;;;;;;;17.95;3.85;;;18.50;92.30;;;;;;5011763;28;20546;-68
2023/05/26 09:39:38;;;;;;;13.52;2.45;;;18.50;91.20;;;;;;5006938;28;20044;-68
2023/05/26 09:42:07;;;;;;;13.88;2.92;;;18.40;90.80;;;;;;5010086;28;20423;-69
2023/05/26 09:44:34;;;;;;;13.05;3.40;;;18.30;90.90;;;;;;5009621;28;20044;-69
2023/05/26 09:47:00;;;;;;;10.52;2.53;;;18.40;90.70;;;;;;5009289;28;20108;-69
2023/05/26 09:49:27;;;;;;;10.48;2.83;;;18.60;90.80;;;;;;4997591;28;20048;-69
2023/05/26 09:51:54;;;;;;;16.08;3.78;;;18.70;90.70;;;;;;4980381;28;1070053;-68
2023/05/26 09:54:21;;;;;;;11.70;2.78;;;18.90;90.00;;;;;;5021745;28;20041;-69
2023/05/26 09:56:53;;;;;;;14.43;3.33;;;18.90;90.20;;;;;;5012643;28;20365;-68
2023/05/26 09:59:26;;;;;;;19.75;4.32;;;19.00;90.10;;;;;;5006753;28;20104;-68
2023/05/26 10:01:53;;;;;;;10.98;2.95;;;19.20;90.10;;;;;;5007790;28;20033;-69
2023/05/26 10:04:20;;;;;;;14.77;3.55;;;19.40;89.10;;;;;;5010473;28;20826;-69
2023/05/26 10:06:48;;;;;;;12.50;3.22;;;19.50;88.70;;;;;;5009154;28;20039;-68
2023/05/26 10:09:16;;;;;;;16.23;5.35;;;19.70;89.80;;;;;;5011251;28;20439;-71
2023/05/26 10:11:46;;;;;;;17.35;5.97;;;19.90;88.70;;;;;;5015438;28;20039;-70
2023/05/26 10:14:13;;;;;;;14.70;4.25;;;20.10;87.30;;;;;;5019272;28;20032;-69
2023/05/26 10:16:41;;;;;;;10.55;3.00;;;20.20;86.60;;;;;;5011862;28;20056;-69
2023/05/26 10:19:07;;;;;;;14.90;3.65;;;20.20;86.40;;;;;;5007411;28;20503;-68
2023/05/26 10:21:40;;;;;;;12.30;3.13;;;20.30;87.40;;;;;;5003792;28;20037;-69
2023/05/26 10:24:15;;;;;;;14.68;3.88;;;20.60;86.90;;;;;;5007139;28;20393;-69
2023/05/26 10:26:54;;;;;;;9.63;2.60;;;20.80;85.80;;;;;;4992560;28;20545;-69
2023/05/26 10:29:29;;;;;;;16.02;3.13;;;21.10;85.30;;;;;;5010210;28;20718;-69
2023/05/26 10:31:55;;;;;;;11.07;2.47;;;21.30;84.80;;;;;;5018351;28;20037;-70
2023/05/26 10:34:44;;;;;;;12.27;3.45;;;21.50;83.80;;;;;;5020705;28;20033;-70
2023/05/26 10:37:16;;;;;;;11.07;3.03;;;21.60;82.00;;;;;;5010965;28;20048;-70
2023/05/26 10:39:42;;;;;;;11.52;2.95;;;21.70;80.70;;;;;;5003962;28;20388;-68
2023/05/26 10:42:19;;;;;;;12.23;3.22;;;21.90;79.20;;;;;;5008946;28;20492;-70
2023/05/26 10:44:48;;;;;;;9.73;2.28;;;22.00;76.60;;;;;;4992937;28;20033;-68
2023/05/26 10:47:16;;;;;;;10.55;2.65;;;22.00;76.30;;;;;;4991666;28;20040;-68
2023/05/26 10:49:54;;;;;;;11.02;3.00;;;22.10;76.20;;;;;;4987695;28;20071;-67
2023/05/26 10:52:20;;;;;;;15.63;3.45;;;22.20;73.10;;;;;;5021964;28;20433;-68
2023/05/26 10:54:50;;;;;;;12.18;3.28;;;22.30;72.80;;;;;;5020292;28;20492;-67
2023/05/26 10:57:31;;;;;;;9.27;2.50;;;22.40;71.00;;;;;;5011038;28;20036;-68
2023/05/26 11:00:16;;;;;;;9.82;2.58;;;22.70;70.30;;;;;;5003069;28;20045;-68
2023/05/26 11:02:42;;;;;;;12.45;3.60;;;23.00;70.50;;;;;;4993176;28;20051;-67
2023/05/26 11:05:29;;;;;;;12.55;3.88;;;23.40;69.90;;;;;;5010632;28;20114;-68
2023/05/26 11:07:55;;;;;;;9.98;3.00;;;23.80;69.80;;;;;;5009842;28;20055;-67
2023/05/26 11:10:21;;;;;;;11.82;3.17;;;24.10;66.90;;;;;;5007815;28;20041;-68
2023/05/26 11:12:54;;;;;;;13.05;3.08;;;24.20;65.00;;;;;;5020473;28;20032;-67
2023/05/26 11:15:31;;;;;;;5.47;1.92;;;24.30;64.50;;;;;;5018859;28;20067;-68
2023/05/26 11:18:01;;;;;;;9.57;3.03;;;24.50;64.70;;;;;;5008530;28;20032;-67
2023/05/26 11:20:27;;;;;;;12.57;2.70;;;24.90;64.90;;;;;;5002808;28;20373;-67
2023/05/26 11:22:55;;;;;;;9.90;2.65;;;25.20;62.20;;;;;;5011728;28;20036;-67
2023/05/26 11:25:22;;;;;;;10.07;3.03;;;25.40;62.60;;;;;;5009787;28;20511;-67
2023/05/26 11:27:49;;;;;;;13.40;3.90;;;25.60;60.20;;;;;;5004326;28;20136;-66
2023/05/26 11:30:17;;;;;;;10.88;3.10;;;25.60;60.00;;;;;;5000285;28;20689;-68
2023/05/26 11:32:48;;;;;;;9.55;2.58;;;25.80;60.60;;;;;;5018234;28;20496;-67
2023/05/26 11:35:29;;;;;;;15.32;3.63;;;26.20;61.00;;;;;;5015457;28;20040;-67
2023/05/26 11:37:56;;;;;;;8.27;2.22;;;26.60;60.10;;;;;;4995965;28;20047;-66
2023/05/26 11:40:22;;;;;;;9.45;2.30;;;26.80;56.80;;;;;;4998886;28;20037;-66
2023/05/26 11:42:53;;;;;;;7.53;2.50;;;27.00;56.30;;;;;;5005535;28;20437;-67
2023/05/26 11:45:21;;;;;;;10.93;3.05;;;27.20;56.80;;;;;;5004562;28;20044;-66
2023/05/26 11:47:48;;;;;;;11.52;3.60;;;27.50;55.10;;;;;;4974079;28;20682;-68
2023/05/26 11:50:14;;;;;;;9.98;3.13;;;27.60;55.40;;;;;;4979853;28;21439;-67
2023/05/26 11:52:41;;;;;;;10.48;2.63;;;27.80;55.10;;;;;;5013266;28;20041;-67
2023/05/26 11:55:11;;;;;;;10.57;3.08;;;27.90;55.10;;;;;;5016605;28;20040;-67
2023/05/26 11:57:39;;;;;;;10.23;2.80;;;28.00;54.80;;;;;;5012778;28;20037;-69
2023/05/26 12:00:17;;;;;;;9.20;2.85;;;28.10;54.80;;;;;;4998200;28;20052;-67
2023/05/26 12:02:45;;;;;;;9.52;2.65;;;28.40;54.40;;;;;;5006182;28;20041;-69
2023/05/26 12:05:18;;;;;;;10.85;3.10;;;28.40;53.80;;;;;;5006071;28;20032;-67
2023/05/26 12:07:46;;;;;;;11.95;3.53;;;28.50;52.70;;;;;;5004804;28;20048;-67
2023/05/26 12:10:12;;;;;;;10.02;2.90;;;28.60;52.80;;;;;;4995920;28;20052;-68
2023/05/26 12:12:50;;;;;;;10.43;3.17;;;28.80;53.10;;;;;;5011284;28;20040;-68
2023/05/26 12:15:20;;;;;;;8.35;2.88;;;29.20;51.90;;;;;;5017475;28;20033;-67
2023/05/26 12:17:47;;;;;;;8.27;2.50;;;29.30;52.00;;;;;;5016167;28;20652;-67
2023/05/26 12:20:16;;;;;;;11.35;2.90;;;29.50;51.00;;;;;;4997418;28;20037;-67
2023/05/26 12:22:42;;;;;;;9.73;2.63;;;29.50;51.00;;;;;;5005549;28;20036;-68
2023/05/26 12:25:09;;;;;;;7.32;2.38;;;29.70;50.80;;;;;;5007489;28;20603;-68
2023/05/26 12:27:37;;;;;;;17.65;8.00;;;29.90;50.40;;;;;;5006263;28;20037;-70
2023/05/26 12:30:20;;;;;;;14.55;4.32;;;30.20;50.00;;;;;;4996680;28;20041;-68
2023/05/26 12:32:50;;;;;;;7.97;2.50;;;30.50;49.70;;;;;;5006807;28;20017;-69
2023/05/26 12:35:17;;;;;;;9.90;2.83;;;30.70;48.60;;;;;;5016048;28;20040;-67
2023/05/26 12:37:43;;;;;;;11.38;3.38;;;30.70;48.50;;;;;;5017978;28;20021;-67
2023/05/26 12:40:10;;;;;;;10.85;3.78;;;30.90;48.70;;;;;;5008838;28;20035;-68
2023/05/26 12:42:37;;;;;;;7.93;2.95;;;31.30;48.70;;;;;;5009049;28;20025;-67
2023/05/26 12:45:05;;;;;;;10.52;2.80;;;31.50;47.00;;;;;;5008780;28;20036;-67
2023/05/26 12:47:31;;;;;;;8.38;2.47;;;31.50;46.50;;;;;;5011542;28;20469;-69